Time;durP1;ratioP1;P1;durP2;ratioP2;P2;SDS_P1;SDS_P2;PMS_P1;PMS_P2;Temp;Humidity;BMP_temperature;BMP_pressure;BME280_temperature;BME280_humidity;BME280_pressure;Samples;Min_cycle;Max_cycle;Signal;HPM_P1;HPM_P2
2023/09/03 00:01:32;;;;;;;0.45;0.45;;;15.10;99.90;;;;;;4943530;28;20045;-70
2023/09/03 00:03:58;;;;;;;0.08;0.08;;;15.10;99.90;;;;;;4911475;28;20043;-70
2023/09/03 00:06:23;;;;;;;0.10;0.10;;;15.20;99.90;;;;;;4910684;28;20091;-70
2023/09/03 00:08:49;;;;;;;0.00;0.00;;;15.10;99.90;;;;;;4925603;28;20492;-70
2023/09/03 00:11:15;;;;;;;0.15;0.15;;;15.10;99.90;;;;;;4914228;28;20110;-70
2023/09/03 00:13:43;;;;;;;0.25;0.25;;;15.10;99.90;;;;;;4932208;28;20130;-70
2023/09/03 00:16:09;;;;;;;1.88;0.57;;;15.10;99.90;;;;;;4951268;28;20056;-70
2023/09/03 00:18:35;;;;;;;2.72;0.75;;;15.10;99.90;;;;;;4938370;28;20048;-70
2023/09/03 00:21:05;;;;;;;1.15;0.57;;;15.00;99.90;;;;;;4910139;28;20083;-70
2023/09/03 00:23:31;;;;;;;0.22;0.20;;;15.00;99.90;;;;;;4912876;28;20047;-70
2023/09/03 00:25:58;;;;;;;1.10;0.82;;;14.90;99.90;;;;;;4910587;28;20050;-70
2023/09/03 00:28:25;;;;;;;3.13;0.35;;;14.90;99.90;;;;;;4950586;28;20060;-69
2023/09/03 00:31:01;;;;;;;0.20;0.20;;;14.90;99.90;;;;;;4909498;28;20081;-70
2023/09/03 00:33:28;;;;;;;0.10;0.10;;;14.90;99.90;;;;;;4910946;28;20167;-70
2023/09/03 00:35:53;;;;;;;0.38;0.38;;;14.90;99.90;;;;;;4950765;28;20065;-70
2023/09/03 00:38:19;;;;;;;0.10;0.10;;;14.80;99.90;;;;;;4938590;28;20046;-70
2023/09/03 00:40:45;;;;;;;0.28;0.28;;;14.80;99.90;;;;;;4917737;28;20046;-70
2023/09/03 00:43:10;;;;;;;0.05;0.05;;;14.80;99.90;;;;;;4942907;28;20159;-70
2023/09/03 00:45:36;;;;;;;2.20;0.17;;;14.80;99.90;;;;;;4955234;28;20034;-70
2023/09/03 00:48:02;;;;;;;0.17;0.17;;;14.80;99.90;;;;;;4898639;28;20056;-70
2023/09/03 00:50:29;;;;;;;0.30;0.30;;;14.80;99.90;;;;;;4922698;28;20059;-70
2023/09/03 00:52:55;;;;;;;0.00;0.00;;;14.80;99.90;;;;;;4950680;28;20123;-70
2023/09/03 00:55:22;;;;;;;0.10;0.10;;;14.90;99.90;;;;;;4941890;28;20412;-72
2023/09/03 00:57:48;;;;;;;0.50;0.50;;;14.90;99.90;;;;;;4922517;28;20472;-70
2023/09/03 01:00:15;;;;;;;1.90;0.98;;;14.90;99.90;;;;;;4917671;28;20056;-70
2023/09/03 01:02:44;;;;;;;0.40;0.30;;;14.90;99.90;;;;;;4928667;28;20091;-70
2023/09/03 01:05:10;;;;;;;0.30;0.30;;;14.80;99.90;;;;;;4923457;28;20040;-70
2023/09/03 01:07:36;;;;;;;1.17;0.45;;;14.90;99.90;;;;;;4915171;28;20111;-70
2023/09/03 01:10:02;;;;;;;0.10;0.10;;;14.90;99.90;;;;;;4903884;28;20623;-70
2023/09/03 01:12:36;;;;;;;0.10;0.10;;;14.90;99.90;;;;;;4952617;28;20041;-70
2023/09/03 01:15:13;;;;;;;0.00;0.00;;;15.00;99.90;;;;;;4934949;28;20546;-70
2023/09/03 01:17:45;;;;;;;0.20;0.20;;;15.00;99.90;;;;;;4910117;28;20052;-70
2023/09/03 01:20:21;;;;;;;0.10;0.10;;;15.10;99.90;;;;;;4935490;28;20056;-70
2023/09/03 01:23:15;;;;;;;18.17;1.20;;;15.20;99.90;;;;;;4942472;28;20071;-70
2023/09/03 01:26:10;;;;;;;0.10;0.10;;;15.10;99.90;;;;;;4905854;28;20495;-70
2023/09/03 01:28:41;;;;;;;0.28;0.28;;;15.00;99.90;;;;;;4923028;28;20082;-71
2023/09/03 01:31:14;;;;;;;0.90;0.85;;;15.00;99.90;;;;;;4917117;28;20045;-71
2023/09/03 01:33:43;;;;;;;0.20;0.20;;;15.00;99.90;;;;;;4945586;28;20118;-70
2023/09/03 01:36:09;;;;;;;0.40;0.40;;;15.00;99.90;;;;;;4930790;28;20393;-70
2023/09/03 01:38:39;;;;;;;1.73;0.70;;;15.00;99.90;;;;;;4950167;28;20084;-70
2023/09/03 01:41:05;;;;;;;0.20;0.20;;;15.00;99.90;;;;;;4917926;28;20076;-70
2023/09/03 01:43:31;;;;;;;0.08;0.08;;;15.10;99.90;;;;;;4899613;28;20078;-70
2023/09/03 01:46:10;;;;;;;0.25;0.25;;;15.10;99.90;;;;;;4939023;28;20069;-70
2023/09/03 01:48:50;;;;;;;0.55;0.55;;;15.10;99.90;;;;;;4912146;28;20091;-70
2023/09/03 01:51:28;;;;;;;0.00;0.00;;;15.00;99.90;;;;;;4946591;28;20055;-70
2023/09/03 01:54:08;;;;;;;25.20;0.70;;;15.00;99.90;;;;;;4938667;28;20056;-70
2023/09/03 01:56:38;;;;;;;0.13;0.13;;;14.90;99.90;;;;;;4931348;28;20118;-70
2023/09/03 01:59:17;;;;;;;0.10;0.10;;;14.80;99.90;;;;;;4932083;28;20076;-70
2023/09/03 02:01:44;;;;;;;0.20;0.20;;;14.80;99.90;;;;;;4948668;28;20126;-70
2023/09/03 02:04:09;;;;;;;0.10;0.10;;;14.70;99.90;;;;;;4906205;28;20135;-70
2023/09/03 02:06:35;;;;;;;0.40;0.40;;;14.70;99.90;;;;;;4935600;28;20119;-70
2023/09/03 02:09:01;;;;;;;0.10;0.10;;;14.70;99.90;;;;;;4910641;28;20040;-70
2023/09/03 02:11:26;;;;;;;0.00;0.00;;;14.60;99.90;;;;;;4976809;28;20048;-71
2023/09/03 02:13:52;;;;;;;0.90;0.90;;;14.70;99.90;;;;;;4917766;28;20050;-70
2023/09/03 02:16:17;;;;;;;0.55;0.55;;;14.70;99.90;;;;;;4957648;28;20081;-70
2023/09/03 02:18:43;;;;;;;0.20;0.20;;;14.70;99.90;;;;;;4951530;28;20044;-70
2023/09/03 02:21:09;;;;;;;0.30;0.30;;;14.60;99.90;;;;;;4937975;28;20120;-70
2023/09/03 02:23:34;;;;;;;1.80;0.57;;;14.50;99.90;;;;;;4912137;28;20484;-70
2023/09/03 02:26:01;;;;;;;0.15;0.15;;;14.60;99.90;;;;;;4958708;28;20030;-71
2023/09/03 02:28:27;;;;;;;0.30;0.30;;;14.60;99.90;;;;;;4948635;28;20052;-71
2023/09/03 02:30:53;;;;;;;0.00;0.00;;;14.60;99.90;;;;;;4934221;28;20074;-70
2023/09/03 02:33:19;;;;;;;0.10;0.10;;;14.50;99.90;;;;;;4954001;28;20052;-70
2023/09/03 02:35:44;;;;;;;0.10;0.10;;;14.50;99.90;;;;;;4911085;28;20706;-70
2023/09/03 02:38:10;;;;;;;1.65;1.52;;;14.40;99.90;;;;;;4960274;28;20120;-70
2023/09/03 02:40:37;;;;;;;0.30;0.30;;;14.40;99.90;;;;;;4932813;28;20051;-70
2023/09/03 02:43:05;;;;;;;0.00;0.00;;;14.40;99.90;;;;;;4933057;28;20048;-70
2023/09/03 02:45:31;;;;;;;0.20;0.20;;;14.40;99.90;;;;;;4914868;28;20049;-70
2023/09/03 02:47:57;;;;;;;0.22;0.22;;;14.40;99.90;;;;;;4922747;28;20472;-70
2023/09/03 02:50:22;;;;;;;0.30;0.30;;;14.30;99.90;;;;;;4932974;28;20042;-70
2023/09/03 02:52:48;;;;;;;0.55;0.40;;;14.30;99.90;;;;;;4968281;28;20045;-70
2023/09/03 02:55:14;;;;;;;0.10;0.10;;;14.30;99.90;;;;;;4919648;28;20060;-70
2023/09/03 02:57:40;;;;;;;1.15;0.57;;;14.40;99.90;;;;;;4936602;28;20084;-70
2023/09/03 03:00:06;;;;;;;0.10;0.10;;;14.30;99.90;;;;;;4947545;28;20087;-70
2023/09/03 03:02:33;;;;;;;0.10;0.10;;;14.30;99.90;;;;;;4936544;28;20081;-70
2023/09/03 03:04:58;;;;;;;0.22;0.22;;;14.30;99.90;;;;;;4939819;28;20493;-70
2023/09/03 03:07:25;;;;;;;0.20;0.20;;;14.30;99.90;;;;;;4950245;28;20048;-70
2023/09/03 03:09:51;;;;;;;0.25;0.25;;;14.20;99.90;;;;;;4934427;28;20605;-70
2023/09/03 03:12:18;;;;;;;3.53;1.08;;;14.20;99.90;;;;;;4954749;28;20047;-70
2023/09/03 03:14:44;;;;;;;5.50;0.45;;;14.10;99.90;;;;;;4946442;28;20794;-70
2023/09/03 03:17:10;;;;;;;0.38;0.38;;;14.10;99.90;;;;;;4958166;28;20052;-70
2023/09/03 03:19:35;;;;;;;0.22;0.22;;;14.20;99.90;;;;;;4913250;28;20052;-70
2023/09/03 03:22:01;;;;;;;0.20;0.20;;;14.10;99.90;;;;;;4972106;28;20390;-71
2023/09/03 03:24:26;;;;;;;0.00;0.00;;;14.10;99.90;;;;;;4967389;28;20046;-70
2023/09/03 03:26:52;;;;;;;0.57;0.57;;;14.20;99.90;;;;;;4925184;28;20044;-70
2023/09/03 03:29:18;;;;;;;0.00;0.00;;;14.20;99.90;;;;;;4911476;28;20048;-70
2023/09/03 03:31:43;;;;;;;0.65;0.65;;;14.20;99.90;;;;;;4902721;28;20060;-70
2023/09/03 03:34:09;;;;;;;0.10;0.10;;;14.20;99.90;;;;;;4933440;28;20054;-70
2023/09/03 03:36:35;;;;;;;0.13;0.13;;;14.10;99.90;;;;;;4928885;28;20040;-70
2023/09/03 03:39:00;;;;;;;0.03;0.03;;;14.10;99.90;;;;;;4950742;28;20055;-70
2023/09/03 03:41:26;;;;;;;0.08;0.08;;;14.20;99.90;;;;;;4940834;28;20038;-70
2023/09/03 03:43:52;;;;;;;0.10;0.10;;;14.20;99.90;;;;;;4958954;28;20075;-70
2023/09/03 03:46:19;;;;;;;0.10;0.10;;;14.10;99.90;;;;;;4934373;28;20048;-70
2023/09/03 03:48:46;;;;;;;0.10;0.10;;;14.10;99.90;;;;;;4903869;28;20044;-70
2023/09/03 03:51:12;;;;;;;0.00;0.00;;;14.10;99.90;;;;;;4956131;28;20535;-70
2023/09/03 03:53:38;;;;;;;0.20;0.20;;;14.20;99.90;;;;;;4910809;28;20060;-70
2023/09/03 03:56:09;;;;;;;0.10;0.10;;;14.20;99.90;;;;;;4922353;28;20071;-70
2023/09/03 03:58:36;;;;;;;0.52;0.52;;;14.10;99.90;;;;;;4902832;28;20048;-70
2023/09/03 04:01:19;;;;;;;0.00;0.00;;;14.10;99.90;;;;;;4921612;28;20129;-70
2023/09/03 04:03:50;;;;;;;0.00;0.00;;;14.00;99.90;;;;;;4948954;28;20046;-70
2023/09/03 04:06:15;;;;;;;0.00;0.00;;;14.00;99.90;;;;;;4923912;28;20499;-71
2023/09/03 04:08:44;;;;;;;0.00;0.00;;;14.10;99.90;;;;;;4944804;28;20080;-70
2023/09/03 04:11:12;;;;;;;0.63;0.52;;;14.10;99.90;;;;;;4972050;28;20041;-70
2023/09/03 04:13:38;;;;;;;0.15;0.15;;;14.10;99.90;;;;;;4936480;28;20491;-70
2023/09/03 04:16:09;;;;;;;0.20;0.20;;;14.10;99.90;;;;;;4919014;28;20106;-70
2023/09/03 04:18:34;;;;;;;0.00;0.00;;;14.00;99.90;;;;;;4934584;28;20155;-70
2023/09/03 04:21:00;;;;;;;0.00;0.00;;;13.90;99.90;;;;;;4960900;28;20124;-70
2023/09/03 04:23:26;;;;;;;0.10;0.10;;;13.90;99.90;;;;;;4909579;28;20040;-70
2023/09/03 04:25:52;;;;;;;0.35;0.35;;;13.90;99.90;;;;;;4957485;28;20036;-70
2023/09/03 04:28:21;;;;;;;0.30;0.30;;;13.90;99.90;;;;;;4938526;28;20048;-70
2023/09/03 04:30:51;;;;;;;0.00;0.00;;;13.90;99.90;;;;;;4955351;28;20096;-70
2023/09/03 04:33:17;;;;;;;0.85;0.85;;;13.90;99.90;;;;;;4900832;28;20132;-70
2023/09/03 04:35:42;;;;;;;0.10;0.10;;;14.00;99.90;;;;;;4947245;28;20038;-70
2023/09/03 04:38:08;;;;;;;0.00;0.00;;;14.00;99.90;;;;;;4944955;28;20045;-70
2023/09/03 04:40:37;;;;;;;0.20;0.20;;;14.10;99.90;;;;;;4915933;28;20044;-70
2023/09/03 04:43:04;;;;;;;0.32;0.30;;;14.00;99.90;;;;;;4906518;28;20098;-70
2023/09/03 04:45:31;;;;;;;0.47;0.40;;;14.00;99.90;;;;;;4927708;28;20477;-70
2023/09/03 04:47:58;;;;;;;9.20;0.38;;;14.00;99.90;;;;;;4928696;28;20087;-70
2023/09/03 04:50:25;;;;;;;0.00;0.00;;;14.00;99.90;;;;;;4934549;28;20519;-70
2023/09/03 04:52:53;;;;;;;0.10;0.10;;;14.00;99.90;;;;;;4919818;28;20118;-70
2023/09/03 04:55:19;;;;;;;0.10;0.10;;;14.00;99.90;;;;;;4953120;28;20107;-70
2023/09/03 04:57:45;;;;;;;0.00;0.00;;;13.90;99.90;;;;;;4930617;28;20444;-70
2023/09/03 05:00:11;;;;;;;0.00;0.00;;;14.00;99.90;;;;;;4925449;28;20048;-70
2023/09/03 05:02:36;;;;;;;0.38;0.38;;;14.00;99.90;;;;;;4969924;28;20073;-70
2023/09/03 05:05:02;;;;;;;0.10;0.10;;;13.90;99.90;;;;;;4947700;28;20143;-70
2023/09/03 05:07:28;;;;;;;0.00;0.00;;;13.90;99.90;;;;;;4922592;28;20090;-71
2023/09/03 05:09:55;;;;;;;0.08;0.08;;;14.00;99.90;;;;;;4940503;28;20068;-71
2023/09/03 05:12:21;;;;;;;0.55;0.50;;;14.00;99.90;;;;;;4925143;28;20123;-71
2023/09/03 05:14:46;;;;;;;0.00;0.00;;;14.10;99.90;;;;;;4963763;28;20121;-70
2023/09/03 05:17:12;;;;;;;0.05;0.05;;;14.00;99.90;;;;;;4956877;28;20551;-70
2023/09/03 05:19:39;;;;;;;0.03;0.03;;;14.20;99.90;;;;;;4945649;28;20051;-70
2023/09/03 05:22:04;;;;;;;0.10;0.10;;;14.20;99.90;;;;;;4951427;28;20063;-70
2023/09/03 05:24:30;;;;;;;0.15;0.15;;;14.20;99.90;;;;;;4928007;28;20527;-70
2023/09/03 05:26:55;;;;;;;0.30;0.30;;;14.30;99.90;;;;;;4919815;28;20038;-71
2023/09/03 05:29:21;;;;;;;0.00;0.00;;;14.20;99.90;;;;;;4945545;28;20584;-70
2023/09/03 05:31:47;;;;;;;0.00;0.00;;;14.20;99.90;;;;;;4933038;28;20104;-71
2023/09/03 05:34:12;;;;;;;0.00;0.00;;;14.20;99.90;;;;;;4913943;28;21690;-70
2023/09/03 05:36:39;;;;;;;0.00;0.00;;;14.20;99.90;;;;;;4915609;28;20115;-70
2023/09/03 05:39:04;;;;;;;0.10;0.10;;;14.30;99.90;;;;;;4973636;28;20540;-71
2023/09/03 05:41:31;;;;;;;0.47;0.35;;;14.30;99.90;;;;;;4911144;28;20041;-70
2023/09/03 05:43:57;;;;;;;0.00;0.00;;;14.30;99.90;;;;;;4956833;28;20116;-70
2023/09/03 05:46:23;;;;;;;0.10;0.10;;;14.30;99.90;;;;;;4925447;28;20048;-70
2023/09/03 05:48:52;;;;;;;0.75;0.75;;;14.30;99.90;;;;;;4952109;28;20721;-70
2023/09/03 05:51:18;;;;;;;0.00;0.00;;;14.30;99.90;;;;;;4933119;28;20098;-71
2023/09/03 05:53:44;;;;;;;0.17;0.17;;;14.20;99.90;;;;;;4930045;28;20038;-70
2023/09/03 05:56:11;;;;;;;0.20;0.20;;;14.40;99.90;;;;;;4919057;28;20090;-71
2023/09/03 05:58:38;;;;;;;0.93;0.55;;;14.40;99.90;;;;;;4906348;28;20848;-71
2023/09/03 06:01:13;;;;;;;0.00;0.00;;;14.50;99.90;;;;;;4914756;28;20135;-70
2023/09/03 06:03:40;;;;;;;0.05;0.05;;;14.60;99.90;;;;;;4947284;28;20056;-71
2023/09/03 06:06:11;;;;;;;0.38;0.30;;;14.70;99.90;;;;;;4903231;28;20350;-71
2023/09/03 06:08:38;;;;;;;1.95;0.38;;;14.70;99.90;;;;;;4956000;28;20055;-71
2023/09/03 06:11:04;;;;;;;0.00;0.00;;;14.80;99.90;;;;;;4918006;28;20067;-71
2023/09/03 06:13:31;;;;;;;0.13;0.13;;;14.90;99.90;;;;;;4943455;28;20038;-69
2023/09/03 06:15:57;;;;;;;0.10;0.10;;;15.00;99.90;;;;;;4903014;28;20051;-71
2023/09/03 06:18:24;;;;;;;0.10;0.10;;;15.10;99.90;;;;;;4914929;28;20044;-71
2023/09/03 06:20:50;;;;;;;0.00;0.00;;;15.10;99.90;;;;;;4947722;28;20077;-71
2023/09/03 06:23:17;;;;;;;0.00;0.00;;;15.20;99.90;;;;;;4920475;28;20924;-71
2023/09/03 06:25:43;;;;;;;0.00;0.00;;;15.30;99.90;;;;;;4955241;28;20044;-71
2023/09/03 06:28:09;;;;;;;0.00;0.00;;;15.30;99.90;;;;;;4966487;28;20488;-71
2023/09/03 06:30:35;;;;;;;1.52;1.42;;;15.40;99.90;;;;;;4912379;28;20040;-71
2023/09/03 06:33:01;;;;;;;0.00;0.00;;;15.40;99.90;;;;;;4933941;28;20130;-71
2023/09/03 06:35:27;;;;;;;0.05;0.05;;;15.40;99.90;;;;;;4898834;28;20146;-71
2023/09/03 06:37:53;;;;;;;0.08;0.08;;;15.50;99.90;;;;;;4941056;28;20074;-71
2023/09/03 06:40:18;;;;;;;0.10;0.10;;;15.50;99.90;;;;;;4948109;28;20099;-71
2023/09/03 06:42:44;;;;;;;5.15;0.15;;;15.50;99.90;;;;;;4964762;28;20051;-71
2023/09/03 06:45:10;;;;;;;0.00;0.00;;;15.60;99.90;;;;;;4934202;28;20048;-71
2023/09/03 06:47:38;;;;;;;0.00;0.00;;;15.60;99.90;;;;;;4964881;28;20054;-71
2023/09/03 06:50:05;;;;;;;0.20;0.20;;;15.60;99.90;;;;;;4912785;28;20048;-70
2023/09/03 06:52:31;;;;;;;0.00;0.00;;;15.70;99.90;;;;;;4926126;28;20084;-71
2023/09/03 06:54:56;;;;;;;0.00;0.00;;;15.70;99.90;;;;;;4963716;28;20075;-71
2023/09/03 06:57:24;;;;;;;8.45;0.43;;;15.80;99.90;;;;;;4928856;28;20040;-71
2023/09/03 06:59:49;;;;;;;0.00;0.00;;;15.90;99.90;;;;;;4934798;28;20075;-71
2023/09/03 07:02:15;;;;;;;0.13;0.13;;;16.00;99.90;;;;;;4939665;28;20731;-71
2023/09/03 07:04:41;;;;;;;0.00;0.00;;;16.00;99.90;;;;;;4941392;28;20119;-72
2023/09/03 07:07:08;;;;;;;0.20;0.20;;;16.00;99.90;;;;;;4923625;28;20056;-71
2023/09/03 07:09:33;;;;;;;0.10;0.10;;;16.10;99.90;;;;;;4931628;28;20044;-71
2023/09/03 07:12:04;;;;;;;0.13;0.13;;;16.20;99.90;;;;;;4932672;28;20383;-71
2023/09/03 07:14:33;;;;;;;0.13;0.10;;;16.20;99.90;;;;;;4921212;28;20087;-71
2023/09/03 07:17:03;;;;;;;0.00;0.00;;;16.30;99.90;;;;;;4923977;28;20052;-71
2023/09/03 07:19:29;;;;;;;0.10;0.10;;;16.30;99.90;;;;;;4947704;28;20488;-71
2023/09/03 07:21:55;;;;;;;0.00;0.00;;;16.40;99.90;;;;;;4913228;28;20524;-71
2023/09/03 07:24:21;;;;;;;0.00;0.00;;;16.50;99.90;;;;;;4926323;28;20057;-71
2023/09/03 07:26:46;;;;;;;0.00;0.00;;;16.50;99.90;;;;;;4928386;28;20041;-71
2023/09/03 07:29:16;;;;;;;0.28;0.28;;;16.60;99.90;;;;;;4934495;28;20056;-71
2023/09/03 07:31:43;;;;;;;0.10;0.10;;;16.70;99.90;;;;;;4914168;28;20036;-71
2023/09/03 07:34:12;;;;;;;0.10;0.10;;;16.70;99.90;;;;;;4915523;28;20521;-71
2023/09/03 07:36:38;;;;;;;0.10;0.10;;;16.80;99.90;;;;;;4923998;28;20054;-72
2023/09/03 07:39:05;;;;;;;0.20;0.20;;;16.80;99.90;;;;;;4916875;28;20053;-72
2023/09/03 07:41:31;;;;;;;1.70;0.55;;;16.90;99.90;;;;;;4917123;28;20063;-72
2023/09/03 07:43:57;;;;;;;0.32;0.22;;;16.90;99.90;;;;;;4930197;28;20489;-72
2023/09/03 07:46:23;;;;;;;0.10;0.10;;;16.90;99.90;;;;;;4931679;28;20045;-72
2023/09/03 07:48:49;;;;;;;0.20;0.20;;;16.90;99.90;;;;;;4931032;28;20532;-71
2023/09/03 07:51:16;;;;;;;0.00;0.00;;;17.00;99.90;;;;;;4936739;28;20114;-72
2023/09/03 07:53:42;;;;;;;0.00;0.00;;;17.00;99.90;;;;;;4938090;28;20084;-72
2023/09/03 07:56:08;;;;;;;0.00;0.00;;;17.10;99.90;;;;;;4936681;28;20088;-71
2023/09/03 07:58:33;;;;;;;0.38;0.38;;;17.10;99.90;;;;;;4914016;28;20281;-71
2023/09/03 08:01:00;;;;;;;0.08;0.08;;;17.20;99.90;;;;;;4951858;28;20577;-71
2023/09/03 08:03:35;;;;;;;0.03;0.03;;;17.20;99.90;;;;;;4909823;28;20050;-71
2023/09/03 08:06:01;;;;;;;0.10;0.10;;;17.30;99.90;;;;;;4909190;28;20058;-71
2023/09/03 08:08:28;;;;;;;0.00;0.00;;;17.40;99.90;;;;;;4921031;28;20048;-71
2023/09/03 08:10:54;;;;;;;0.00;0.00;;;17.40;99.90;;;;;;4925610;28;20034;-70
2023/09/03 08:13:20;;;;;;;0.25;0.25;;;17.50;99.90;;;;;;4930485;28;20040;-70
2023/09/03 08:15:45;;;;;;;0.00;0.00;;;17.50;99.90;;;;;;4914565;28;20509;-70
2023/09/03 08:18:11;;;;;;;0.00;0.00;;;17.50;99.90;;;;;;4941734;28;20053;-70
2023/09/03 08:20:37;;;;;;;0.20;0.20;;;17.60;99.90;;;;;;4910921;28;20036;-70
2023/09/03 08:23:02;;;;;;;0.00;0.00;;;17.60;99.90;;;;;;4960296;28;20896;-71
2023/09/03 08:25:29;;;;;;;0.00;0.00;;;17.60;99.90;;;;;;4923773;28;20057;-70
2023/09/03 08:27:54;;;;;;;0.25;0.25;;;17.70;99.90;;;;;;4957319;28;20061;-70
2023/09/03 08:30:20;;;;;;;0.00;0.00;;;17.70;99.90;;;;;;4919559;28;20052;-70
2023/09/03 08:32:46;;;;;;;0.10;0.10;;;17.80;99.90;;;;;;4977560;28;20059;-70
2023/09/03 08:35:11;;;;;;;1.00;0.70;;;17.90;99.90;;;;;;4936437;28;20605;-70
2023/09/03 08:37:37;;;;;;;0.00;0.00;;;18.00;99.90;;;;;;4960893;28;20042;-70
2023/09/03 08:40:03;;;;;;;1.23;0.45;;;18.10;99.90;;;;;;4947365;28;20044;-70
2023/09/03 08:42:30;;;;;;;0.47;0.45;;;18.10;99.90;;;;;;4917310;28;20055;-70
2023/09/03 08:45:01;;;;;;;0.15;0.08;;;18.20;99.90;;;;;;4925145;28;20059;-70
2023/09/03 08:47:27;;;;;;;0.03;0.03;;;18.20;99.90;;;;;;4928670;28;20481;-70
2023/09/03 08:49:53;;;;;;;0.00;0.00;;;18.40;99.90;;;;;;4949446;28;20035;-68
2023/09/03 08:52:19;;;;;;;0.10;0.10;;;18.50;99.90;;;;;;4943367;28;20694;-68
2023/09/03 08:54:45;;;;;;;1.15;0.65;;;18.50;99.90;;;;;;4929348;28;20050;-69
2023/09/03 08:57:12;;;;;;;0.95;0.70;;;18.50;99.90;;;;;;4956222;28;20045;-70
2023/09/03 08:59:38;;;;;;;0.52;0.52;;;18.60;99.90;;;;;;4953029;28;20115;-69
2023/09/03 09:02:09;;;;;;;0.30;0.28;;;18.60;99.90;;;;;;4969865;28;20109;-69
2023/09/03 09:04:34;;;;;;;0.05;0.05;;;18.80;99.90;;;;;;4946577;28;20109;-70
2023/09/03 09:07:00;;;;;;;0.00;0.00;;;19.20;99.90;;;;;;4923160;28;20687;-70
2023/09/03 09:09:29;;;;;;;0.00;0.00;;;19.40;99.90;;;;;;4931858;28;20049;-70
2023/09/03 09:12:17;;;;;;;0.00;0.00;;;20.00;99.90;;;;;;4973914;28;20036;-70
2023/09/03 09:14:53;;;;;;;0.47;0.47;;;20.70;99.90;;;;;;4910821;28;20076;-70
2023/09/03 09:17:19;;;;;;;1.08;0.30;;;21.40;99.90;;;;;;4911045;28;20049;-71
2023/09/03 09:19:45;;;;;;;0.43;0.43;;;21.70;99.90;;;;;;4930085;28;20103;-71
2023/09/03 09:22:10;;;;;;;0.00;0.00;;;22.30;99.90;;;;;;4904651;28;20059;-71
2023/09/03 09:24:46;;;;;;;0.00;0.00;;;22.60;99.90;;;;;;4951980;28;20068;-71
2023/09/03 09:27:22;;;;;;;0.65;0.50;;;22.70;99.90;;;;;;4923969;28;20052;-71
2023/09/03 09:29:48;;;;;;;0.00;0.00;;;22.20;99.90;;;;;;4957649;28;20040;-70
2023/09/03 09:32:24;;;;;;;0.00;0.00;;;21.90;99.90;;;;;;4964650;28;20107;-70
2023/09/03 09:34:50;;;;;;;0.70;0.47;;;21.70;99.90;;;;;;4937112;28;20111;-71
2023/09/03 09:37:17;;;;;;;0.10;0.10;;;21.50;99.90;;;;;;4927579;28;20141;-71
2023/09/03 09:39:43;;;;;;;0.05;0.05;;;21.90;99.90;;;;;;4909421;28;20561;-71
2023/09/03 09:42:12;;;;;;;3.03;1.98;;;22.00;99.90;;;;;;4934234;28;20544;-71
2023/09/03 09:44:38;;;;;;;0.10;0.10;;;22.50;99.90;;;;;;4965095;28;20054;-71
2023/09/03 09:47:21;;;;;;;0.13;0.13;;;22.90;99.90;;;;;;4924988;28;20498;-71
2023/09/03 09:49:47;;;;;;;0.30;0.10;;;23.10;99.90;;;;;;4903384;28;20099;-71
2023/09/03 09:52:14;;;;;;;0.10;0.10;;;22.90;99.90;;;;;;4899710;28;20056;-70
2023/09/03 09:54:44;;;;;;;0.95;0.28;;;22.70;99.90;;;;;;4933717;28;20049;-71
2023/09/03 09:57:21;;;;;;;0.00;0.00;;;22.50;99.90;;;;;;4953839;28;20052;-72
2023/09/03 09:59:53;;;;;;;0.00;0.00;;;22.50;99.90;;;;;;4921134;28;20452;-71
2023/09/03 10:02:19;;;;;;;0.10;0.10;;;22.50;99.90;;;;;;4919054;28;20166;-71
2023/09/03 10:04:51;;;;;;;0.00;0.00;;;22.70;99.90;;;;;;4933231;28;20059;-71
2023/09/03 10:07:16;;;;;;;0.00;0.00;;;23.10;99.90;;;;;;4905908;28;20048;-71
2023/09/03 10:09:44;;;;;;;0.00;0.00;;;23.30;99.90;;;;;;4930581;28;20056;-72
2023/09/03 10:12:10;;;;;;;0.00;0.00;;;23.50;99.90;;;;;;4905335;28;20059;-72
2023/09/03 10:14:36;;;;;;;0.00;0.00;;;23.80;99.90;;;;;;4921867;28;20183;-72
2023/09/03 10:17:03;;;;;;;2.60;0.17;;;23.90;99.90;;;;;;4937528;28;20044;-72
2023/09/03 10:19:47;;;;;;;0.00;0.00;;;23.80;99.90;;;;;;4935014;28;20044;-72
2023/09/03 10:22:16;;;;;;;0.00;0.00;;;23.50;99.90;;;;;;4927518;28;20488;-72
2023/09/03 10:24:44;;;;;;;0.03;0.03;;;23.60;99.90;;;;;;4906389;28;20123;-72
2023/09/03 10:27:14;;;;;;;0.00;0.00;;;23.50;99.90;;;;;;4916982;28;20553;-72
2023/09/03 10:29:42;;;;;;;0.00;0.00;;;23.40;99.90;;;;;;4943458;28;20424;-72
2023/09/03 10:32:10;;;;;;;0.00;0.00;;;23.30;99.90;;;;;;4968501;28;20069;-72
2023/09/03 10:34:36;;;;;;;0.00;0.00;;;23.00;99.90;;;;;;4930288;28;20064;-72
2023/09/03 10:37:06;;;;;;;0.00;0.00;;;23.10;99.90;;;;;;4929464;28;20044;-72
2023/09/03 10:39:32;;;;;;;0.00;0.00;;;22.90;99.90;;;;;;4958788;28;20052;-72
2023/09/03 10:42:23;;;;;;;0.00;0.00;;;22.70;99.90;;;;;;4929745;28;20106;-72
2023/09/03 10:44:56;;;;;;;0.28;0.28;;;22.60;99.90;;;;;;4947774;28;20034;-73
2023/09/03 10:47:22;;;;;;;0.00;0.00;;;22.50;99.90;;;;;;4957986;28;20064;-72
2023/09/03 10:49:53;;;;;;;0.00;0.00;;;22.40;99.90;;;;;;4960075;28;20042;-72
2023/09/03 10:52:34;;;;;;;0.00;0.00;;;22.40;99.90;;;;;;4941250;28;20053;-72
2023/09/03 10:55:20;;;;;;;0.20;0.20;;;22.80;99.90;;;;;;4945706;28;20048;-72
2023/09/03 10:58:10;;;;;;;0.30;0.30;;;22.40;99.90;;;;;;4932669;28;20046;-72
2023/09/03 11:00:37;;;;;;;0.00;0.00;;;22.10;99.90;;;;;;4914614;28;20116;-71
2023/09/03 11:03:23;;;;;;;0.10;0.10;;;21.90;99.90;;;;;;4910686;28;20044;-71
2023/09/03 11:06:25;;;;;;;0.00;0.00;;;22.30;99.90;;;;;;4909255;28;20040;-72
2023/09/03 11:09:06;;;;;;;0.00;0.00;;;22.80;99.90;;;;;;4985627;28;20088;-72
2023/09/03 11:11:33;;;;;;;0.00;0.00;;;23.10;99.90;;;;;;4983990;28;20166;-72
2023/09/03 11:14:00;;;;;;;0.00;0.00;;;23.30;99.90;;;;;;4951539;28;20087;-72
2023/09/03 11:16:35;;;;;;;0.00;0.00;;;23.40;99.90;;;;;;4912473;28;20135;-72
2023/09/03 11:19:04;;;;;;;0.22;0.17;;;22.90;99.90;;;;;;4961974;28;20477;-72
2023/09/03 11:21:30;;;;;;;0.00;0.00;;;22.90;99.90;;;;;;4964311;28;20504;-71
2023/09/03 11:24:02;;;;;;;0.10;0.10;;;23.30;99.90;;;;;;4908913;28;20048;-72
2023/09/03 11:26:34;;;;;;;0.20;0.20;;;23.60;99.90;;;;;;4945000;28;20053;-72
2023/09/03 11:29:01;;;;;;;0.00;0.00;;;23.90;99.90;;;;;;4903641;28;20045;-72
2023/09/03 11:31:28;;;;;;;0.00;0.00;;;24.10;99.90;;;;;;4933842;28;20057;-72
2023/09/03 11:33:55;;;;;;;0.00;0.00;;;24.30;99.90;;;;;;4962730;28;20059;-72
2023/09/03 11:36:24;;;;;;;0.00;0.00;;;24.30;99.90;;;;;;4959888;28;20059;-72
2023/09/03 11:38:55;;;;;;;0.32;0.10;;;23.60;99.90;;;;;;4929999;28;20107;-72
2023/09/03 11:41:21;;;;;;;0.00;0.00;;;23.80;99.90;;;;;;4927406;28;20050;-72
2023/09/03 11:43:47;;;;;;;0.10;0.10;;;24.10;99.90;;;;;;4956686;28;20170;-72
2023/09/03 11:46:18;;;;;;;0.00;0.00;;;24.30;99.90;;;;;;4931217;28;20520;-71
2023/09/03 11:48:51;;;;;;;0.20;0.20;;;24.30;99.90;;;;;;4912953;28;20059;-72
2023/09/03 11:51:24;;;;;;;0.00;0.00;;;24.50;99.90;;;;;;4914112;28;20042;-71
2023/09/03 11:53:49;;;;;;;0.00;0.00;;;24.50;99.90;;;;;;4940613;28;20368;-72
2023/09/03 11:56:18;;;;;;;0.20;0.10;;;24.80;99.90;;;;;;4917441;28;20052;-71
2023/09/03 11:58:46;;;;;;;0.00;0.00;;;24.80;99.90;;;;;;4948739;28;20112;-72
2023/09/03 12:01:13;;;;;;;0.10;0.10;;;25.10;99.90;;;;;;4901182;28;20397;-72
2023/09/03 12:03:39;;;;;;;0.00;0.00;;;25.10;99.90;;;;;;4935888;28;20083;-72
2023/09/03 12:06:05;;;;;;;0.00;0.00;;;25.30;99.90;;;;;;4924400;28;20520;-71
2023/09/03 12:08:32;;;;;;;3.40;0.13;;;25.30;99.90;;;;;;4970102;28;20409;-71
2023/09/03 12:10:58;;;;;;;1.35;0.43;;;25.30;99.90;;;;;;4973791;28;20065;-71
2023/09/03 12:13:34;;;;;;;0.00;0.00;;;25.40;99.90;;;;;;4945095;28;20099;-72
2023/09/03 12:16:09;;;;;;;1.13;1.02;;;25.40;99.90;;;;;;4956980;28;20087;-72
2023/09/03 12:18:36;;;;;;;0.03;0.03;;;25.20;99.90;;;;;;4945816;28;20399;-72
2023/09/03 12:21:07;;;;;;;0.00;0.00;;;25.60;99.90;;;;;;4911990;28;20032;-72
2023/09/03 12:23:37;;;;;;;0.00;0.00;;;25.80;99.90;;;;;;4912060;28;20690;-72
2023/09/03 12:26:03;;;;;;;0.00;0.00;;;25.70;99.90;;;;;;4920388;28;20040;-69
2023/09/03 12:28:33;;;;;;;0.00;0.00;;;26.00;99.90;;;;;;4930262;28;20091;-69
2023/09/03 12:31:01;;;;;;;0.00;0.00;;;25.80;99.90;;;;;;4930698;28;20560;-69
2023/09/03 12:33:49;;;;;;;1.08;0.80;;;26.00;99.90;;;;;;4950287;28;20096;-69
2023/09/03 12:36:20;;;;;;;0.70;0.65;;;26.20;99.90;;;;;;4914178;28;20044;-69
2023/09/03 12:39:04;;;;;;;0.00;0.00;;;26.10;99.90;;;;;;4980415;28;20052;-69
2023/09/03 12:41:34;;;;;;;0.00;0.00;;;25.70;99.90;;;;;;4942971;28;20092;-69
2023/09/03 12:44:07;;;;;;;0.20;0.20;;;26.10;99.90;;;;;;4947470;28;20059;-69
2023/09/03 12:46:34;;;;;;;0.00;0.00;;;26.20;99.90;;;;;;4926126;28;20056;-69
2023/09/03 12:49:01;;;;;;;0.32;0.32;;;26.00;99.90;;;;;;4954230;28;20047;-69
2023/09/03 12:51:27;;;;;;;0.00;0.00;;;25.80;99.90;;;;;;4921760;28;20050;-69
2023/09/03 12:53:53;;;;;;;0.00;0.00;;;25.80;99.90;;;;;;4912861;28;20073;-69